sensor_id;sensor_type;location;lat;lon;timestamp;temperature;humidity
46438;DHT22;32137;48.728;9.142;2023-03-21T00:01:54;10.20;1.00
46438;DHT22;32137;48.728;9.142;2023-03-21T00:04:25;10.20;1.00
46438;DHT22;32137;48.728;9.142;2023-03-21T00:06:51;10.20;1.00
46438;DHT22;32137;48.728;9.142;2023-03-21T00:09:17;10.20;1.00
46438;DHT22;32137;48.728;9.142;2023-03-21T00:11:43;10.20;1.00
46438;DHT22;32137;48.728;9.142;2023-03-21T00:14:08;10.10;1.00
46438;DHT22;32137;48.728;9.142;2023-03-21T00:16:38;10.10;1.00
46438;DHT22;32137;48.728;9.142;2023-03-21T00:19:04;10.10;1.00
46438;DHT22;32137;48.728;9.142;2023-03-21T00:21:30;10.10;1.00
46438;DHT22;32137;48.728;9.142;2023-03-21T00:23:58;10.10;1.00
46438;DHT22;32137;48.728;9.142;2023-03-21T00:26:25;10.10;1.00
46438;DHT22;32137;48.728;9.142;2023-03-21T00:28:51;10.10;1.00
46438;DHT22;32137;48.728;9.142;2023-03-21T00:31:18;10.10;1.00
46438;DHT22;32137;48.728;9.142;2023-03-21T00:33:44;10.10;1.00
46438;DHT22;32137;48.728;9.142;2023-03-21T00:36:10;10.10;1.00
46438;DHT22;32137;48.728;9.142;2023-03-21T00:38:36;10.10;1.00
46438;DHT22;32137;48.728;9.142;2023-03-21T00:41:03;10.10;1.00
46438;DHT22;32137;48.728;9.142;2023-03-21T00:43:29;10.10;1.00
46438;DHT22;32137;48.728;9.142;2023-03-21T00:45:56;10.10;1.00
46438;DHT22;32137;48.728;9.142;2023-03-21T00:48:25;10.00;1.00
46438;DHT22;32137;48.728;9.142;2023-03-21T00:50:52;10.00;1.00
46438;DHT22;32137;48.728;9.142;2023-03-21T00:53:19;10.00;1.00
46438;DHT22;32137;48.728;9.142;2023-03-21T00:55:45;10.00;1.00
46438;DHT22;32137;48.728;9.142;2023-03-21T00:58:10;10.00;1.00
46438;DHT22;32137;48.728;9.142;2023-03-21T01:00:36;10.00;1.00
46438;DHT22;32137;48.728;9.142;2023-03-21T01:03:04;10.00;1.00
46438;DHT22;32137;48.728;9.142;2023-03-21T01:05:38;10.00;1.00
46438;DHT22;32137;48.728;9.142;2023-03-21T01:08:24;10.00;1.00
46438;DHT22;32137;48.728;9.142;2023-03-21T01:10:51;10.00;1.00
46438;DHT22;32137;48.728;9.142;2023-03-21T01:13:18;10.00;1.00
46438;DHT22;32137;48.728;9.142;2023-03-21T01:15:49;10.00;1.00
46438;DHT22;32137;48.728;9.142;2023-03-21T01:18:17;10.00;1.00
46438;DHT22;32137;48.728;9.142;2023-03-21T01:20:44;10.00;1.00
46438;DHT22;32137;48.728;9.142;2023-03-21T01:23:11;10.00;1.00
46438;DHT22;32137;48.728;9.142;2023-03-21T01:25:36;10.00;1.00
46438;DHT22;32137;48.728;9.142;2023-03-21T01:28:03;10.00;1.00
46438;DHT22;32137;48.728;9.142;2023-03-21T01:30:29;10.00;1.00
46438;DHT22;32137;48.728;9.142;2023-03-21T01:32:54;10.00;1.00
46438;DHT22;32137;48.728;9.142;2023-03-21T01:35:20;10.00;1.00
46438;DHT22;32137;48.728;9.142;2023-03-21T01:37:45;10.00;1.00
46438;DHT22;32137;48.728;9.142;2023-03-21T01:40:26;10.00;1.00
46438;DHT22;32137;48.728;9.142;2023-03-21T01:42:52;10.00;1.00
46438;DHT22;32137;48.728;9.142;2023-03-21T01:48:21;10.00;1.00
46438;DHT22;32137;48.728;9.142;2023-03-21T01:50:48;10.00;1.00
46438;DHT22;32137;48.728;9.142;2023-03-21T01:53:15;10.00;1.00
46438;DHT22;32137;48.728;9.142;2023-03-21T01:55:41;10.00;1.00
46438;DHT22;32137;48.728;9.142;2023-03-21T01:58:09;10.00;1.00
46438;DHT22;32137;48.728;9.142;2023-03-21T02:00:35;10.00;1.00
46438;DHT22;32137;48.728;9.142;2023-03-21T02:03:06;10.00;1.00
46438;DHT22;32137;48.728;9.142;2023-03-21T02:05:58;10.00;1.00
46438;DHT22;32137;48.728;9.142;2023-03-21T02:08:31;9.90;1.00
46438;DHT22;32137;48.728;9.142;2023-03-21T02:10:56;9.90;1.00
46438;DHT22;32137;48.728;9.142;2023-03-21T02:13:22;9.90;1.00
46438;DHT22;32137;48.728;9.142;2023-03-21T02:16:12;9.90;1.00
46438;DHT22;32137;48.728;9.142;2023-03-21T02:18:58;9.90;1.00
46438;DHT22;32137;48.728;9.142;2023-03-21T02:28:25;9.80;1.00
46438;DHT22;32137;48.728;9.142;2023-03-21T02:39:10;9.70;1.00
46438;DHT22;32137;48.728;9.142;2023-03-21T02:41:44;9.70;1.00
46438;DHT22;32137;48.728;9.142;2023-03-21T02:47:00;9.70;1.00
46438;DHT22;32137;48.728;9.142;2023-03-21T02:52:06;9.60;1.00
46438;DHT22;32137;48.728;9.142;2023-03-21T02:54:34;9.60;1.00
46438;DHT22;32137;48.728;9.142;2023-03-21T02:57:01;9.60;1.00
46438;DHT22;32137;48.728;9.142;2023-03-21T02:59:29;9.60;1.00
46438;DHT22;32137;48.728;9.142;2023-03-21T03:01:57;9.60;1.00
46438;DHT22;32137;48.728;9.142;2023-03-21T03:04:27;9.60;1.00
46438;DHT22;32137;48.728;9.142;2023-03-21T03:09:38;9.60;1.00
46438;DHT22;32137;48.728;9.142;2023-03-21T03:14:58;9.50;1.00
46438;DHT22;32137;48.728;9.142;2023-03-21T03:17:46;9.60;1.00
46438;DHT22;32137;48.728;9.142;2023-03-21T03:20:38;9.60;1.00
46438;DHT22;32137;48.728;9.142;2023-03-21T03:25:56;9.50;1.00
46438;DHT22;32137;48.728;9.142;2023-03-21T03:28:27;9.50;1.00
46438;DHT22;32137;48.728;9.142;2023-03-21T03:30:55;9.50;1.00
46438;DHT22;32137;48.728;9.142;2023-03-21T03:33:23;9.50;1.00
46438;DHT22;32137;48.728;9.142;2023-03-21T03:35:50;9.50;1.00
46438;DHT22;32137;48.728;9.142;2023-03-21T03:38:19;9.50;1.00
46438;DHT22;32137;48.728;9.142;2023-03-21T03:40:52;9.50;1.00
46438;DHT22;32137;48.728;9.142;2023-03-21T03:43:29;9.40;1.00
46438;DHT22;32137;48.728;9.142;2023-03-21T03:46:00;9.40;1.00
46438;DHT22;32137;48.728;9.142;2023-03-21T03:48:29;9.40;1.00
46438;DHT22;32137;48.728;9.142;2023-03-21T03:51:03;9.40;1.00
46438;DHT22;32137;48.728;9.142;2023-03-21T03:53:43;9.40;1.00
46438;DHT22;32137;48.728;9.142;2023-03-21T03:56:11;9.40;1.00
46438;DHT22;32137;48.728;9.142;2023-03-21T03:58:38;9.30;1.00
46438;DHT22;32137;48.728;9.142;2023-03-21T04:01:05;9.30;1.00
46438;DHT22;32137;48.728;9.142;2023-03-21T04:03:32;9.30;1.00
46438;DHT22;32137;48.728;9.142;2023-03-21T04:05:59;9.30;1.00
46438;DHT22;32137;48.728;9.142;2023-03-21T04:08:24;9.30;1.00
46438;DHT22;32137;48.728;9.142;2023-03-21T04:10:50;9.30;1.00
46438;DHT22;32137;48.728;9.142;2023-03-21T04:13:16;9.30;1.00
46438;DHT22;32137;48.728;9.142;2023-03-21T04:15:43;9.30;1.00
46438;DHT22;32137;48.728;9.142;2023-03-21T04:18:08;9.30;1.00
46438;DHT22;32137;48.728;9.142;2023-03-21T04:20:34;9.30;1.00
46438;DHT22;32137;48.728;9.142;2023-03-21T04:22:59;9.30;1.00
46438;DHT22;32137;48.728;9.142;2023-03-21T04:25:25;9.30;1.00
46438;DHT22;32137;48.728;9.142;2023-03-21T04:27:53;9.20;1.00
46438;DHT22;32137;48.728;9.142;2023-03-21T04:30:20;9.20;1.00
46438;DHT22;32137;48.728;9.142;2023-03-21T04:32:49;9.20;1.00
46438;DHT22;32137;48.728;9.142;2023-03-21T04:35:21;9.20;1.00
46438;DHT22;32137;48.728;9.142;2023-03-21T04:37:47;9.10;1.00
46438;DHT22;32137;48.728;9.142;2023-03-21T04:40:14;9.00;1.00
46438;DHT22;32137;48.728;9.142;2023-03-21T04:42:43;9.00;1.00
46438;DHT22;32137;48.728;9.142;2023-03-21T04:45:09;9.00;1.00
46438;DHT22;32137;48.728;9.142;2023-03-21T04:47:35;8.90;1.00
46438;DHT22;32137;48.728;9.142;2023-03-21T04:50:01;8.80;1.00
46438;DHT22;32137;48.728;9.142;2023-03-21T04:52:26;8.80;1.00
46438;DHT22;32137;48.728;9.142;2023-03-21T04:54:52;8.80;1.00
46438;DHT22;32137;48.728;9.142;2023-03-21T04:57:18;8.80;1.00
46438;DHT22;32137;48.728;9.142;2023-03-21T04:59:43;8.70;1.00
46438;DHT22;32137;48.728;9.142;2023-03-21T05:02:10;8.70;1.00
46438;DHT22;32137;48.728;9.142;2023-03-21T05:04:37;8.70;1.00
46438;DHT22;32137;48.728;9.142;2023-03-21T05:07:02;8.60;1.00
46438;DHT22;32137;48.728;9.142;2023-03-21T05:09:28;8.60;1.00
46438;DHT22;32137;48.728;9.142;2023-03-21T05:11:54;8.60;1.00
46438;DHT22;32137;48.728;9.142;2023-03-21T05:14:22;8.50;1.00
46438;DHT22;32137;48.728;9.142;2023-03-21T05:16:48;8.50;1.00
46438;DHT22;32137;48.728;9.142;2023-03-21T05:19:19;8.50;1.00
46438;DHT22;32137;48.728;9.142;2023-03-21T05:21:47;8.40;1.00
46438;DHT22;32137;48.728;9.142;2023-03-21T05:24:18;8.40;1.00
46438;DHT22;32137;48.728;9.142;2023-03-21T05:26:45;8.40;1.00
46438;DHT22;32137;48.728;9.142;2023-03-21T05:29:15;8.30;1.00
46438;DHT22;32137;48.728;9.142;2023-03-21T05:31:42;8.30;1.00
46438;DHT22;32137;48.728;9.142;2023-03-21T05:34:08;8.30;1.00
46438;DHT22;32137;48.728;9.142;2023-03-21T05:36:33;8.30;1.00
46438;DHT22;32137;48.728;9.142;2023-03-21T05:39:00;8.30;1.00
46438;DHT22;32137;48.728;9.142;2023-03-21T05:41:26;8.40;1.00
46438;DHT22;32137;48.728;9.142;2023-03-21T05:43:53;8.40;1.00
46438;DHT22;32137;48.728;9.142;2023-03-21T05:46:18;8.40;1.00
46438;DHT22;32137;48.728;9.142;2023-03-21T05:48:44;8.40;1.00
46438;DHT22;32137;48.728;9.142;2023-03-21T05:51:10;8.40;1.00
46438;DHT22;32137;48.728;9.142;2023-03-21T05:53:35;8.40;1.00
46438;DHT22;32137;48.728;9.142;2023-03-21T05:56:01;8.40;1.00
46438;DHT22;32137;48.728;9.142;2023-03-21T05:58:26;8.40;1.00
46438;DHT22;32137;48.728;9.142;2023-03-21T06:00:52;8.40;1.00
46438;DHT22;32137;48.728;9.142;2023-03-21T06:03:17;8.40;1.00
46438;DHT22;32137;48.728;9.142;2023-03-21T06:05:43;8.40;1.00
46438;DHT22;32137;48.728;9.142;2023-03-21T06:08:09;8.40;1.00
46438;DHT22;32137;48.728;9.142;2023-03-21T06:10:34;8.30;1.00
46438;DHT22;32137;48.728;9.142;2023-03-21T06:13:00;8.30;1.00
46438;DHT22;32137;48.728;9.142;2023-03-21T06:15:25;8.30;1.00
46438;DHT22;32137;48.728;9.142;2023-03-21T06:17:51;8.30;1.00
46438;DHT22;32137;48.728;9.142;2023-03-21T06:20:17;8.30;1.00
46438;DHT22;32137;48.728;9.142;2023-03-21T06:22:43;8.30;1.00
46438;DHT22;32137;48.728;9.142;2023-03-21T06:25:09;8.30;1.00
46438;DHT22;32137;48.728;9.142;2023-03-21T06:27:35;8.30;1.00
46438;DHT22;32137;48.728;9.142;2023-03-21T06:30:01;8.30;1.00
46438;DHT22;32137;48.728;9.142;2023-03-21T06:32:27;8.30;1.00
46438;DHT22;32137;48.728;9.142;2023-03-21T06:34:52;8.20;1.00
46438;DHT22;32137;48.728;9.142;2023-03-21T06:37:18;8.30;1.00
46438;DHT22;32137;48.728;9.142;2023-03-21T06:39:44;8.20;1.00
46438;DHT22;32137;48.728;9.142;2023-03-21T06:42:11;8.20;1.00
46438;DHT22;32137;48.728;9.142;2023-03-21T06:44:37;8.30;1.00
46438;DHT22;32137;48.728;9.142;2023-03-21T06:47:02;8.30;1.00
46438;DHT22;32137;48.728;9.142;2023-03-21T06:49:28;8.30;1.00
46438;DHT22;32137;48.728;9.142;2023-03-21T06:51:54;8.30;1.00
46438;DHT22;32137;48.728;9.142;2023-03-21T06:54:19;8.30;1.00
46438;DHT22;32137;48.728;9.142;2023-03-21T06:56:45;8.30;1.00
46438;DHT22;32137;48.728;9.142;2023-03-21T06:59:11;8.30;1.00
46438;DHT22;32137;48.728;9.142;2023-03-21T07:01:37;8.30;1.00
46438;DHT22;32137;48.728;9.142;2023-03-21T07:04:02;8.30;1.00
46438;DHT22;32137;48.728;9.142;2023-03-21T07:06:29;8.30;1.00
46438;DHT22;32137;48.728;9.142;2023-03-21T07:08:55;8.40;1.00
46438;DHT22;32137;48.728;9.142;2023-03-21T07:11:21;8.40;1.00
46438;DHT22;32137;48.728;9.142;2023-03-21T07:13:48;8.40;1.00
46438;DHT22;32137;48.728;9.142;2023-03-21T07:16:14;8.50;1.00
46438;DHT22;32137;48.728;9.142;2023-03-21T07:18:41;8.50;1.00
46438;DHT22;32137;48.728;9.142;2023-03-21T07:21:07;8.50;1.00
46438;DHT22;32137;48.728;9.142;2023-03-21T07:23:33;8.50;1.00
46438;DHT22;32137;48.728;9.142;2023-03-21T07:25:59;8.60;1.00
46438;DHT22;32137;48.728;9.142;2023-03-21T07:28:26;8.60;1.00
46438;DHT22;32137;48.728;9.142;2023-03-21T07:30:57;8.60;1.00
46438;DHT22;32137;48.728;9.142;2023-03-21T07:33:23;8.70;1.00
46438;DHT22;32137;48.728;9.142;2023-03-21T07:35:50;8.70;1.00
46438;DHT22;32137;48.728;9.142;2023-03-21T07:38:17;8.80;1.00
46438;DHT22;32137;48.728;9.142;2023-03-21T07:40:43;8.90;1.00
46438;DHT22;32137;48.728;9.142;2023-03-21T07:43:09;9.00;1.00
46438;DHT22;32137;48.728;9.142;2023-03-21T07:45:35;9.00;1.00
46438;DHT22;32137;48.728;9.142;2023-03-21T07:48:01;9.10;1.00
46438;DHT22;32137;48.728;9.142;2023-03-21T07:50:26;9.10;1.00
46438;DHT22;32137;48.728;9.142;2023-03-21T07:52:52;9.20;1.00
46438;DHT22;32137;48.728;9.142;2023-03-21T07:55:18;9.20;1.00
46438;DHT22;32137;48.728;9.142;2023-03-21T07:57:44;9.30;1.00
46438;DHT22;32137;48.728;9.142;2023-03-21T08:00:10;9.40;1.00
46438;DHT22;32137;48.728;9.142;2023-03-21T08:02:36;9.40;1.00
46438;DHT22;32137;48.728;9.142;2023-03-21T08:05:02;9.50;1.00
46438;DHT22;32137;48.728;9.142;2023-03-21T08:07:28;9.50;1.00
46438;DHT22;32137;48.728;9.142;2023-03-21T08:09:55;9.50;1.00
46438;DHT22;32137;48.728;9.142;2023-03-21T08:12:20;9.60;1.00
46438;DHT22;32137;48.728;9.142;2023-03-21T08:14:46;9.70;1.00
46438;DHT22;32137;48.728;9.142;2023-03-21T08:17:11;9.60;1.00
46438;DHT22;32137;48.728;9.142;2023-03-21T08:19:37;9.70;1.00
46438;DHT22;32137;48.728;9.142;2023-03-21T08:22:03;9.70;1.00
46438;DHT22;32137;48.728;9.142;2023-03-21T08:24:31;9.70;1.00
46438;DHT22;32137;48.728;9.142;2023-03-21T08:26:59;9.80;1.00
46438;DHT22;32137;48.728;9.142;2023-03-21T08:29:25;9.80;1.00
46438;DHT22;32137;48.728;9.142;2023-03-21T08:31:51;9.80;1.00
46438;DHT22;32137;48.728;9.142;2023-03-21T08:34:17;9.80;1.00
46438;DHT22;32137;48.728;9.142;2023-03-21T08:36:43;9.80;1.00
46438;DHT22;32137;48.728;9.142;2023-03-21T08:39:09;9.80;1.00
46438;DHT22;32137;48.728;9.142;2023-03-21T08:41:36;9.90;1.00
46438;DHT22;32137;48.728;9.142;2023-03-21T08:44:03;9.90;1.00
46438;DHT22;32137;48.728;9.142;2023-03-21T08:46:29;10.00;1.00
46438;DHT22;32137;48.728;9.142;2023-03-21T08:48:54;10.00;1.00
46438;DHT22;32137;48.728;9.142;2023-03-21T08:51:20;10.00;1.00
46438;DHT22;32137;48.728;9.142;2023-03-21T08:53:46;10.10;1.00
46438;DHT22;32137;48.728;9.142;2023-03-21T08:56:13;10.10;1.00
46438;DHT22;32137;48.728;9.142;2023-03-21T08:58:39;10.20;1.00
46438;DHT22;32137;48.728;9.142;2023-03-21T09:01:05;10.20;1.00
46438;DHT22;32137;48.728;9.142;2023-03-21T09:03:36;10.30;1.00
46438;DHT22;32137;48.728;9.142;2023-03-21T09:06:03;10.40;1.00
46438;DHT22;32137;48.728;9.142;2023-03-21T09:08:29;10.40;1.00
46438;DHT22;32137;48.728;9.142;2023-03-21T09:10:55;10.50;1.00
46438;DHT22;32137;48.728;9.142;2023-03-21T09:13:21;10.50;1.00
46438;DHT22;32137;48.728;9.142;2023-03-21T09:15:47;10.60;1.00
46438;DHT22;32137;48.728;9.142;2023-03-21T09:18:14;10.70;1.00
46438;DHT22;32137;48.728;9.142;2023-03-21T09:20:46;10.80;1.00
46438;DHT22;32137;48.728;9.142;2023-03-21T09:23:14;10.80;1.00
46438;DHT22;32137;48.728;9.142;2023-03-21T09:25:40;10.80;1.00
46438;DHT22;32137;48.728;9.142;2023-03-21T09:28:06;10.90;1.00
46438;DHT22;32137;48.728;9.142;2023-03-21T09:30:33;10.90;1.00
46438;DHT22;32137;48.728;9.142;2023-03-21T09:33:00;11.00;1.00
46438;DHT22;32137;48.728;9.142;2023-03-21T09:35:27;11.10;1.00
46438;DHT22;32137;48.728;9.142;2023-03-21T09:37:53;11.10;1.00
46438;DHT22;32137;48.728;9.142;2023-03-21T09:40:38;11.20;1.00
46438;DHT22;32137;48.728;9.142;2023-03-21T09:45:52;11.40;1.00
46438;DHT22;32137;48.728;9.142;2023-03-21T09:48:35;11.60;1.00
46438;DHT22;32137;48.728;9.142;2023-03-21T09:51:05;11.80;1.00
46438;DHT22;32137;48.728;9.142;2023-03-21T09:53:36;11.90;1.00
46438;DHT22;32137;48.728;9.142;2023-03-21T09:56:05;12.00;1.00
46438;DHT22;32137;48.728;9.142;2023-03-21T09:58:40;12.10;1.00
46438;DHT22;32137;48.728;9.142;2023-03-21T10:01:16;12.20;1.00
46438;DHT22;32137;48.728;9.142;2023-03-21T10:03:56;12.30;1.00
46438;DHT22;32137;48.728;9.142;2023-03-21T10:06:25;12.50;1.00
46438;DHT22;32137;48.728;9.142;2023-03-21T10:09:00;12.50;1.00
46438;DHT22;32137;48.728;9.142;2023-03-21T10:11:42;12.60;1.00
46438;DHT22;32137;48.728;9.142;2023-03-21T10:14:17;12.80;1.00
46438;DHT22;32137;48.728;9.142;2023-03-21T10:16:47;12.90;1.00
46438;DHT22;32137;48.728;9.142;2023-03-21T10:19:16;12.90;1.00
46438;DHT22;32137;48.728;9.142;2023-03-21T10:21:47;13.00;1.00
46438;DHT22;32137;48.728;9.142;2023-03-21T10:24:15;13.10;1.00
46438;DHT22;32137;48.728;9.142;2023-03-21T10:26:42;13.20;1.00
46438;DHT22;32137;48.728;9.142;2023-03-21T10:29:11;13.30;1.00
46438;DHT22;32137;48.728;9.142;2023-03-21T10:31:39;13.40;1.00
46438;DHT22;32137;48.728;9.142;2023-03-21T10:34:17;13.50;1.00
46438;DHT22;32137;48.728;9.142;2023-03-21T10:36:45;13.60;1.00
46438;DHT22;32137;48.728;9.142;2023-03-21T10:39:25;13.80;1.00
46438;DHT22;32137;48.728;9.142;2023-03-21T10:41:51;13.90;1.00
46438;DHT22;32137;48.728;9.142;2023-03-21T10:44:18;14.00;1.00
46438;DHT22;32137;48.728;9.142;2023-03-21T10:46:55;14.10;1.00
46438;DHT22;32137;48.728;9.142;2023-03-21T10:49:21;14.10;1.00
46438;DHT22;32137;48.728;9.142;2023-03-21T10:51:52;14.20;1.00
46438;DHT22;32137;48.728;9.142;2023-03-21T10:54:21;14.40;1.00
46438;DHT22;32137;48.728;9.142;2023-03-21T10:59:17;14.60;1.00
46438;DHT22;32137;48.728;9.142;2023-03-21T11:01:50;14.70;1.00
46438;DHT22;32137;48.728;9.142;2023-03-21T11:04:21;14.80;1.00
46438;DHT22;32137;48.728;9.142;2023-03-21T11:06:51;14.80;1.00
46438;DHT22;32137;48.728;9.142;2023-03-21T11:09:21;14.90;1.00
46438;DHT22;32137;48.728;9.142;2023-03-21T11:12:14;14.90;1.00
46438;DHT22;32137;48.728;9.142;2023-03-21T11:14:47;15.00;1.00
46438;DHT22;32137;48.728;9.142;2023-03-21T11:19:47;15.10;1.00
46438;DHT22;32137;48.728;9.142;2023-03-21T11:22:14;15.10;1.00
46438;DHT22;32137;48.728;9.142;2023-03-21T11:24:43;15.10;1.00
46438;DHT22;32137;48.728;9.142;2023-03-21T11:27:12;15.10;1.00
46438;DHT22;32137;48.728;9.142;2023-03-21T11:29:38;15.10;1.00
46438;DHT22;32137;48.728;9.142;2023-03-21T11:34:49;15.10;1.00
46438;DHT22;32137;48.728;9.142;2023-03-21T11:37:30;15.00;99.90
46438;DHT22;32137;48.728;9.142;2023-03-21T11:40:22;15.10;99.90
46438;DHT22;32137;48.728;9.142;2023-03-21T11:42:50;15.00;99.90
46438;DHT22;32137;48.728;9.142;2023-03-21T11:45:20;15.00;99.90
46438;DHT22;32137;48.728;9.142;2023-03-21T11:47:47;14.90;99.90
46438;DHT22;32137;48.728;9.142;2023-03-21T11:52:46;15.00;99.90
46438;DHT22;32137;48.728;9.142;2023-03-21T11:55:37;15.00;99.90
46438;DHT22;32137;48.728;9.142;2023-03-21T12:01:01;15.00;99.90
46438;DHT22;32137;48.728;9.142;2023-03-21T12:06:09;15.10;99.90
46438;DHT22;32137;48.728;9.142;2023-03-21T12:25:34;15.40;99.90
46438;DHT22;32137;48.728;9.142;2023-03-21T12:34:14;15.50;99.90
46438;DHT22;32137;48.728;9.142;2023-03-21T12:39:39;15.80;99.90
46438;DHT22;32137;48.728;9.142;2023-03-21T12:42:29;15.90;99.90
46438;DHT22;32137;48.728;9.142;2023-03-21T12:48:35;16.80;99.90
46438;DHT22;32137;48.728;9.142;2023-03-21T12:51:04;17.20;99.90
46438;DHT22;32137;48.728;9.142;2023-03-21T12:53:40;17.40;99.90
46438;DHT22;32137;48.728;9.142;2023-03-21T12:56:10;17.70;99.90
46438;DHT22;32137;48.728;9.142;2023-03-21T12:58:45;18.20;99.90
46438;DHT22;32137;48.728;9.142;2023-03-21T13:01:11;18.20;99.90
46438;DHT22;32137;48.728;9.142;2023-03-21T13:03:41;18.10;99.90
46438;DHT22;32137;48.728;9.142;2023-03-21T13:06:14;18.10;99.90
46438;DHT22;32137;48.728;9.142;2023-03-21T13:11:45;18.50;99.90
46438;DHT22;32137;48.728;9.142;2023-03-21T13:14:27;18.40;99.90
46438;DHT22;32137;48.728;9.142;2023-03-21T13:17:07;18.20;99.90
46438;DHT22;32137;48.728;9.142;2023-03-21T13:19:45;18.10;99.90
46438;DHT22;32137;48.728;9.142;2023-03-21T13:22:28;18.30;99.90
46438;DHT22;32137;48.728;9.142;2023-03-21T13:24:59;18.60;99.90
46438;DHT22;32137;48.728;9.142;2023-03-21T13:27:30;18.40;99.90
46438;DHT22;32137;48.728;9.142;2023-03-21T13:30:01;18.10;99.90
46438;DHT22;32137;48.728;9.142;2023-03-21T13:32:36;17.80;99.90
46438;DHT22;32137;48.728;9.142;2023-03-21T13:35:54;17.80;99.90
46438;DHT22;32137;48.728;9.142;2023-03-21T13:38:15;18.50;99.90
46438;DHT22;32137;48.728;9.142;2023-03-21T13:51:42;18.50;99.90
46438;DHT22;32137;48.728;9.142;2023-03-21T13:59:11;18.20;99.90
46438;DHT22;32137;48.728;9.142;2023-03-21T14:04:28;17.90;99.90
46438;DHT22;32137;48.728;9.142;2023-03-21T14:07:02;17.80;99.90
46438;DHT22;32137;48.728;9.142;2023-03-21T14:09:51;17.70;99.90
46438;DHT22;32137;48.728;9.142;2023-03-21T14:12:22;17.60;99.90
46438;DHT22;32137;48.728;9.142;2023-03-21T14:15:00;17.30;99.90
46438;DHT22;32137;48.728;9.142;2023-03-21T14:17:30;17.20;99.90
46438;DHT22;32137;48.728;9.142;2023-03-21T14:20:00;17.10;99.90
46438;DHT22;32137;48.728;9.142;2023-03-21T14:22:26;17.00;99.90
46438;DHT22;32137;48.728;9.142;2023-03-21T14:25:00;16.90;99.90
46438;DHT22;32137;48.728;9.142;2023-03-21T14:27:32;16.90;99.90
46438;DHT22;32137;48.728;9.142;2023-03-21T14:30:00;16.90;99.90
46438;DHT22;32137;48.728;9.142;2023-03-21T14:32:28;16.90;99.90
46438;DHT22;32137;48.728;9.142;2023-03-21T14:34:55;16.90;99.90
46438;DHT22;32137;48.728;9.142;2023-03-21T14:37:38;17.00;99.90
46438;DHT22;32137;48.728;9.142;2023-03-21T14:40:16;17.00;99.90
46438;DHT22;32137;48.728;9.142;2023-03-21T14:42:46;17.00;99.90
46438;DHT22;32137;48.728;9.142;2023-03-21T14:45:28;17.00;99.90
46438;DHT22;32137;48.728;9.142;2023-03-21T14:48:00;16.90;99.90
46438;DHT22;32137;48.728;9.142;2023-03-21T14:50:44;16.90;99.90
46438;DHT22;32137;48.728;9.142;2023-03-21T14:53:20;16.90;99.90
46438;DHT22;32137;48.728;9.142;2023-03-21T14:56:37;16.90;99.90
46438;DHT22;32137;48.728;9.142;2023-03-21T14:58:38;16.90;99.90
46438;DHT22;32137;48.728;9.142;2023-03-21T15:01:05;16.90;99.90
46438;DHT22;32137;48.728;9.142;2023-03-21T15:03:33;17.00;99.90
46438;DHT22;32137;48.728;9.142;2023-03-21T15:05:59;17.00;99.90
46438;DHT22;32137;48.728;9.142;2023-03-21T15:08:27;17.10;99.90
46438;DHT22;32137;48.728;9.142;2023-03-21T15:13:29;17.20;99.90
46438;DHT22;32137;48.728;9.142;2023-03-21T15:15:56;17.20;99.90
46438;DHT22;32137;48.728;9.142;2023-03-21T15:18:32;17.30;99.90
46438;DHT22;32137;48.728;9.142;2023-03-21T15:21:09;17.40;99.90
46438;DHT22;32137;48.728;9.142;2023-03-21T15:23:40;17.50;99.90
46438;DHT22;32137;48.728;9.142;2023-03-21T15:26:11;17.50;99.90
46438;DHT22;32137;48.728;9.142;2023-03-21T15:28:37;17.50;99.90
46438;DHT22;32137;48.728;9.142;2023-03-21T15:31:03;17.40;99.90
46438;DHT22;32137;48.728;9.142;2023-03-21T15:33:29;17.40;99.90
46438;DHT22;32137;48.728;9.142;2023-03-21T15:35:57;17.30;99.90
46438;DHT22;32137;48.728;9.142;2023-03-21T15:41:33;17.20;99.90
46438;DHT22;32137;48.728;9.142;2023-03-21T15:43:59;17.00;99.90
46438;DHT22;32137;48.728;9.142;2023-03-21T15:46:55;16.90;99.90
46438;DHT22;32137;48.728;9.142;2023-03-21T15:51:56;16.60;99.90
46438;DHT22;32137;48.728;9.142;2023-03-21T15:54:27;16.50;99.90
46438;DHT22;32137;48.728;9.142;2023-03-21T15:56:59;16.40;99.90
46438;DHT22;32137;48.728;9.142;2023-03-21T15:59:32;16.30;99.90
46438;DHT22;32137;48.728;9.142;2023-03-21T16:01:59;16.10;99.90
46438;DHT22;32137;48.728;9.142;2023-03-21T16:04:25;16.10;99.90
46438;DHT22;32137;48.728;9.142;2023-03-21T16:07:01;16.00;99.90
46438;DHT22;32137;48.728;9.142;2023-03-21T16:09:27;15.90;99.90
46438;DHT22;32137;48.728;9.142;2023-03-21T16:11:57;15.80;99.90
46438;DHT22;32137;48.728;9.142;2023-03-21T16:14:24;15.80;99.90
46438;DHT22;32137;48.728;9.142;2023-03-21T16:16:54;15.70;99.90
46438;DHT22;32137;48.728;9.142;2023-03-21T16:19:20;15.60;99.90
46438;DHT22;32137;48.728;9.142;2023-03-21T16:21:47;15.60;99.90
46438;DHT22;32137;48.728;9.142;2023-03-21T16:24:13;15.50;99.90
46438;DHT22;32137;48.728;9.142;2023-03-21T16:26:45;15.40;99.90
46438;DHT22;32137;48.728;9.142;2023-03-21T16:29:15;15.40;99.90
46438;DHT22;32137;48.728;9.142;2023-03-21T16:31:41;15.30;99.90
46438;DHT22;32137;48.728;9.142;2023-03-21T16:34:06;15.30;99.90
46438;DHT22;32137;48.728;9.142;2023-03-21T16:36:34;15.20;99.90
46438;DHT22;32137;48.728;9.142;2023-03-21T16:39:20;15.10;99.90
46438;DHT22;32137;48.728;9.142;2023-03-21T16:41:46;15.10;99.90
46438;DHT22;32137;48.728;9.142;2023-03-21T16:44:12;15.00;99.90
46438;DHT22;32137;48.728;9.142;2023-03-21T16:46:38;15.00;99.90
46438;DHT22;32137;48.728;9.142;2023-03-21T16:49:03;14.90;99.90
46438;DHT22;32137;48.728;9.142;2023-03-21T16:51:32;14.90;99.90
46438;DHT22;32137;48.728;9.142;2023-03-21T16:53:58;14.80;99.90
46438;DHT22;32137;48.728;9.142;2023-03-21T16:56:36;14.80;99.90
46438;DHT22;32137;48.728;9.142;2023-03-21T16:59:03;14.70;99.90
46438;DHT22;32137;48.728;9.142;2023-03-21T17:01:30;14.70;99.90
46438;DHT22;32137;48.728;9.142;2023-03-21T17:03:57;14.60;99.90
46438;DHT22;32137;48.728;9.142;2023-03-21T17:06:25;14.60;1.00
46438;DHT22;32137;48.728;9.142;2023-03-21T17:08:52;14.50;99.90
46438;DHT22;32137;48.728;9.142;2023-03-21T17:11:19;14.50;99.90
46438;DHT22;32137;48.728;9.142;2023-03-21T17:13:49;14.40;99.90
46438;DHT22;32137;48.728;9.142;2023-03-21T17:16:17;14.40;99.90
46438;DHT22;32137;48.728;9.142;2023-03-21T17:18:43;14.40;99.90
46438;DHT22;32137;48.728;9.142;2023-03-21T17:21:14;14.40;99.90
46438;DHT22;32137;48.728;9.142;2023-03-21T17:23:40;14.30;1.00
46438;DHT22;32137;48.728;9.142;2023-03-21T17:26:06;14.30;99.90
46438;DHT22;32137;48.728;9.142;2023-03-21T17:28:38;14.30;1.00
46438;DHT22;32137;48.728;9.142;2023-03-21T17:31:53;14.20;99.90
46438;DHT22;32137;48.728;9.142;2023-03-21T17:34:00;14.20;99.90
46438;DHT22;32137;48.728;9.142;2023-03-21T17:36:36;14.20;1.00
46438;DHT22;32137;48.728;9.142;2023-03-21T17:39:04;14.10;1.00
46438;DHT22;32137;48.728;9.142;2023-03-21T17:41:30;14.10;1.00
46438;DHT22;32137;48.728;9.142;2023-03-21T17:43:55;14.10;1.00
46438;DHT22;32137;48.728;9.142;2023-03-21T17:46:24;14.00;1.00
46438;DHT22;32137;48.728;9.142;2023-03-21T17:48:50;14.10;1.00
46438;DHT22;32137;48.728;9.142;2023-03-21T17:51:16;14.00;1.00